Time;durP1;ratioP1;P1;durP2;ratioP2;P2;SDS_P1;SDS_P2;PMS_P1;PMS_P2;Temp;Humidity;BMP_temperature;BMP_pressure;BME280_temperature;BME280_humidity;BME280_pressure;Samples;Min_cycle;Max_cycle;Signal;HPM_P1;HPM_P2
2022/11/08 00:01:30;;;;;;;15.70;9.27;;;;;;;8.14;85.97;100641.03;1671419;85;21016;-78
2022/11/08 00:02:57;;;;;;;17.67;9.25;;;;;;;8.17;86.08;100643.11;1670228;85;21506;-78
2022/11/08 00:13:58;;;;;;;15.17;9.40;;;;;;;8.23;86.10;100644.30;1717321;82;21575;-78
2022/11/08 00:16:28;;;;;;;18.97;9.33;;;;;;;8.22;86.06;100639.09;1717256;82;21956;-78
2022/11/08 00:18:56;;;;;;;15.40;9.03;;;;;;;8.21;86.02;100642.61;1717143;82;21360;-78
2022/11/08 00:21:24;;;;;;;16.27;8.97;;;;;;;8.18;85.90;100650.07;1705006;83;21014;-78
2022/11/08 00:23:52;;;;;;;17.03;8.70;;;;;;;8.15;85.85;100648.84;1717140;82;21066;-78
2022/11/08 00:26:20;;;;;;;14.70;9.07;;;;;;;8.11;85.82;100643.71;1705280;83;22119;-78
2022/11/08 00:28:47;;;;;;;13.17;8.87;;;;;;;8.06;85.83;100639.89;1705023;82;21932;-78
2022/11/08 00:31:14;;;;;;;16.23;9.67;;;;;;;8.04;85.94;100641.25;1705227;84;20998;-78
2022/11/08 00:33:41;;;;;;;16.73;9.50;;;;;;;8.02;86.02;100639.11;1704946;83;21500;-78
2022/11/08 00:36:08;;;;;;;16.47;8.80;;;;;;;8.02;86.10;100634.34;1705316;83;20918;-78
2022/11/08 00:38:36;;;;;;;15.93;8.63;;;;;;;8.03;86.20;100639.52;1705039;82;21022;-78
2022/11/08 00:41:02;;;;;;;16.07;9.23;;;;;;;8.02;86.30;100639.11;1705130;83;21085;-78
2022/11/08 00:43:29;;;;;;;17.33;9.10;;;;;;;8.03;86.33;100634.74;1704958;83;21034;-78
2022/11/08 00:45:56;;;;;;;13.60;8.20;;;;;;;8.02;86.33;100631.73;1705189;83;21085;-78
2022/11/08 00:48:23;;;;;;;15.63;9.37;;;;;;;8.03;86.35;100638.20;1705038;83;21053;-79
2022/11/08 00:50:50;;;;;;;14.90;8.40;;;;;;;8.01;86.28;100637.86;1705348;83;21519;-78
2022/11/08 00:53:17;;;;;;;15.80;9.17;;;;;;;8.00;86.37;100644.80;1705091;82;21099;-78
2022/11/08 00:55:44;;;;;;;13.37;7.80;;;;;;;8.00;86.41;100637.42;1705125;83;21086;-78
2022/11/08 00:58:11;;;;;;;13.60;8.07;;;;;;;7.98;86.41;100638.78;1705005;82;21046;-78
2022/11/08 01:00:38;;;;;;;14.80;8.13;;;;;;;7.97;86.44;100644.03;1717312;82;21083;-78
2022/11/08 01:03:18;;;;;;;18.70;8.70;;;;;;;7.95;86.52;100635.36;1704986;83;21022;-79
2022/11/08 01:05:46;;;;;;;12.30;6.87;;;;;;;7.96;86.52;100636.65;1698226;83;21955;-78
2022/11/08 01:08:14;;;;;;;15.23;8.70;;;;;;;7.93;86.53;100636.72;1676539;84;21081;-77
2022/11/08 01:10:43;;;;;;;16.73;9.03;;;;;;;7.92;86.65;100632.38;1676577;84;21502;-78
2022/11/08 01:13:11;;;;;;;27.70;13.63;;;;;;;7.91;86.62;100634.58;1676823;84;21049;-78
2022/11/08 01:15:41;;;;;;;21.30;11.10;;;;;;;7.89;86.73;100631.14;1676512;84;21600;-78
2022/11/08 01:18:11;;;;;;;17.00;9.30;;;;;;;7.90;86.82;100632.88;1676765;84;21120;-78
2022/11/08 01:20:42;;;;;;;19.33;8.93;;;;;;;7.87;86.74;100637.28;1676668;84;21382;-78
2022/11/08 01:23:10;;;;;;;15.33;8.83;;;;;;;7.85;86.83;100636.48;1676358;84;21281;-78
2022/11/08 01:25:41;;;;;;;14.53;9.30;;;;;;;7.82;86.93;100629.58;1676559;84;21035;-78
2022/11/08 01:28:08;;;;;;;;;;;;;;;7.82;86.97;100634.34;1679293;84;21034;-80
2022/11/08 01:30:41;;;;;;;22.47;10.17;;;;;;;7.79;87.10;100623.13;1647710;85;21396;-78
2022/11/08 01:33:09;;;;;;;20.63;10.00;;;;;;;7.78;87.08;100626.60;1695966;83;21586;-78
2022/11/08 01:35:37;;;;;;;19.83;10.00;;;;;;;7.76;87.07;100616.64;1676468;84;21552;-78
2022/11/08 01:38:05;;;;;;;15.27;9.33;;;;;;;7.76;87.27;100619.25;1676504;84;21037;-78
2022/11/08 01:40:34;;;;;;;14.03;8.60;;;;;;;7.75;87.22;100612.32;1676539;84;21105;-78
2022/11/08 01:43:23;;;;;;;13.47;8.77;;;;;;;7.72;87.08;100615.86;1676533;84;21138;-78
2022/11/08 01:46:32;;;;;;;16.37;10.00;;;;;;;7.68;87.24;100614.22;1676497;84;21011;-78
2022/11/08 01:49:36;;;;;;;18.10;11.00;;;;;;;7.63;86.91;100619.98;1662342;84;21020;-78
2022/11/08 01:52:32;;;;;;;16.60;10.97;;;;;;;7.59;87.22;100617.00;1658742;84;21026;-77
2022/11/08 01:55:26;;;;;;;16.47;10.17;;;;;;;7.52;87.10;100616.29;1676547;85;21491;-79
2022/11/08 01:58:00;;;;;;;21.90;10.30;;;;;;;7.47;87.26;100610.76;1695987;83;21176;-78
2022/11/08 02:00:28;;;;;;;15.23;10.07;;;;;;;7.44;87.37;100612.12;1679422;83;21010;-79
2022/11/08 02:02:59;;;;;;;14.93;8.30;;;;;;;7.43;87.49;100606.06;1676531;84;21038;-78
2022/11/08 02:05:29;;;;;;;14.77;8.90;;;;;;;7.42;87.67;100609.98;1695463;82;21023;-79
2022/11/08 02:08:07;;;;;;;13.53;8.30;;;;;;;7.40;87.68;100619.58;1717488;82;21022;-78
2022/11/08 02:10:38;;;;;;;11.43;7.93;;;;;;;7.35;87.58;100613.18;1671462;85;21128;-79
2022/11/08 02:13:11;;;;;;;14.50;8.33;;;;;;;7.32;87.89;100614.09;1671218;85;21034;-79
2022/11/08 02:15:38;;;;;;;14.63;8.57;;;;;;;7.33;88.16;100613.65;1671288;85;21524;-78
2022/11/08 02:18:05;;;;;;;15.87;9.10;;;;;;;7.36;88.40;100614.89;1671600;85;21027;-78
2022/11/08 02:20:33;;;;;;;14.53;8.87;;;;;;;7.40;88.53;100614.37;1671546;85;21596;-78
2022/11/08 02:23:28;;;;;;;17.00;8.60;;;;;;;7.41;88.52;100608.28;1671251;85;21981;-78
2022/11/08 02:25:55;;;;;;;15.60;8.13;;;;;;;7.42;88.67;100603.02;1671581;85;21019;-79
2022/11/08 02:28:22;;;;;;;12.80;7.87;;;;;;;7.44;88.70;100608.22;1671530;85;21035;-79
2022/11/08 02:30:49;;;;;;;15.67;8.53;;;;;;;7.44;88.76;100609.07;1671431;85;21007;-78
2022/11/08 02:33:20;;;;;;;13.80;8.10;;;;;;;7.45;88.77;100609.47;1671505;85;21567;-78
2022/11/08 02:35:53;;;;;;;13.50;8.87;;;;;;;7.44;88.72;100607.77;1671432;85;21196;-80
2022/11/08 02:38:23;;;;;;;10.97;8.40;;;;;;;7.44;88.92;100608.22;1669983;85;21081;-79
2022/11/08 02:40:53;;;;;;;10.93;8.13;;;;;;;7.45;88.83;100607.31;1671445;85;21027;-78
2022/11/08 02:43:22;;;;;;;13.55;8.08;;;;;;;7.44;88.95;100609.07;1671393;85;25932;-79
2022/11/08 02:45:50;;;;;;;14.70;8.87;;;;;;;7.44;89.02;100610.37;1671331;85;21812;-78
2022/11/08 02:48:18;;;;;;;13.87;8.97;;;;;;;7.47;89.19;100612.06;1671270;85;21170;-78
2022/11/08 02:50:46;;;;;;;16.47;8.60;;;;;;;7.48;89.22;100612.05;1671236;85;21011;-79
2022/11/08 02:53:13;;;;;;;13.67;8.33;;;;;;;7.52;89.32;100611.52;1671423;85;21485;-78
2022/11/08 02:55:40;;;;;;;11.30;8.50;;;;;;;7.51;89.24;100605.45;1671485;85;21047;-79
2022/11/08 02:58:07;;;;;;;12.53;7.90;;;;;;;7.50;89.23;100608.93;1671373;85;21089;-80
2022/11/08 03:00:34;;;;;;;12.33;8.63;;;;;;;7.51;89.22;100609.78;1670423;85;21152;-79
2022/11/08 03:03:02;;;;;;;14.27;8.97;;;;;;;7.50;89.18;100609.38;1649185;86;21295;-80
2022/11/08 03:05:29;;;;;;;14.73;8.03;;;;;;;7.51;89.16;100610.67;1647523;85;21125;-78
2022/11/08 03:07:56;;;;;;;12.00;8.77;;;;;;;7.48;89.08;100604.64;1696834;83;21035;-78
2022/11/08 03:10:26;;;;;;;15.50;9.37;;;;;;;7.48;89.20;100606.83;1693825;83;21564;-78
2022/11/08 03:12:59;;;;;;;14.93;8.53;;;;;;;7.50;89.43;100614.15;1669818;85;21134;-79
2022/11/08 03:15:27;;;;;;;15.00;9.17;;;;;;;7.52;89.44;100611.52;1699439;84;20984;-78
2022/11/08 03:17:56;;;;;;;14.77;9.43;;;;;;;7.53;89.49;100613.23;1653602;85;21545;-80
2022/11/08 03:20:24;;;;;;;15.15;8.78;;;;;;;7.53;89.48;100611.47;1699898;84;20905;-78
2022/11/08 03:23:05;;;;;;;14.07;9.37;;;;;;;7.54;89.46;100612.36;1669733;85;21524;-78
2022/11/08 03:25:33;;;;;;;13.87;9.00;;;;;;;7.55;89.54;100611.45;1699754;84;21071;-79
2022/11/08 03:28:08;;;;;;;16.70;10.50;;;;;;;7.56;89.59;100609.25;1669999;85;21027;-79
2022/11/08 03:30:36;;;;;;;19.13;10.37;;;;;;;7.54;89.52;100611.05;1669923;85;21019;-78
2022/11/08 03:33:03;;;;;;;15.33;9.70;;;;;;;7.55;89.65;100612.31;1669674;85;21484;-78
2022/11/08 03:35:31;;;;;;;14.40;9.80;;;;;;;7.56;89.68;100615.77;1691098;83;21460;-78
2022/11/08 03:37:58;;;;;;;14.80;9.30;;;;;;;7.59;89.79;100608.76;1670047;85;21121;-78
2022/11/08 03:40:26;;;;;;;14.03;8.90;;;;;;;7.59;89.74;100615.28;1699475;84;20992;-79
2022/11/08 03:42:56;;;;;;;14.27;9.10;;;;;;;7.58;89.63;100610.94;1669973;85;21500;-78
2022/11/08 03:45:23;;;;;;;18.05;9.20;;;;;;;7.58;89.61;100616.60;1699917;84;21001;-78
2022/11/08 03:47:50;;;;;;;17.50;8.87;;;;;;;7.55;89.59;100613.61;1669885;85;21004;-78
2022/11/08 03:50:17;;;;;;;11.67;7.90;;;;;;;7.54;89.51;100617.13;1699850;84;21376;-78
2022/11/08 03:52:48;;;;;;;11.90;8.17;;;;;;;7.52;89.53;100610.22;1670012;85;21047;-79
2022/11/08 03:55:17;;;;;;;9.53;7.50;;;;;;;7.47;89.38;100612.06;1699452;84;20997;-78
2022/11/08 03:57:49;;;;;;;12.13;7.43;;;;;;;7.46;89.52;100611.66;1670100;85;20988;-80
2022/11/08 04:00:20;;;;;;;13.57;8.27;;;;;;;7.44;89.51;100611.67;1699450;84;21453;-78
2022/11/08 04:02:48;;;;;;;14.60;8.57;;;;;;;7.40;89.47;100615.25;1670005;85;21355;-78
2022/11/08 04:05:16;;;;;;;22.70;11.97;;;;;;;7.34;89.42;100613.63;1699417;83;21406;-79
2022/11/08 04:07:43;;;;;;;12.73;7.97;;;;;;;7.31;89.63;100619.33;1693811;84;21046;-79
2022/11/08 04:10:11;;;;;;;14.37;8.00;;;;;;;7.30;89.74;100615.02;1693825;83;21057;-78
2022/11/08 04:15:28;;;;;;;14.30;8.37;;;;;;;7.26;89.74;100618.55;1699570;84;21305;-78
2022/11/08 04:23:32;;;;;;;13.50;8.87;;;;;;;7.15;89.76;100621.41;1670123;85;20964;-80
2022/11/08 04:26:02;;;;;;;14.23;8.50;;;;;;;7.10;89.96;100622.78;1699396;84;21464;-78
2022/11/08 04:28:32;;;;;;;12.75;8.75;;;;;;;7.10;90.04;100622.78;1670163;85;27548;-80
2022/11/08 04:31:03;;;;;;;12.53;8.60;;;;;;;7.07;89.93;100616.33;1699510;84;21016;-78
2022/11/08 04:33:30;;;;;;;16.43;9.30;;;;;;;7.03;89.98;100615.95;1670050;85;21019;-78
2022/11/08 04:36:02;;;;;;;12.63;8.30;;;;;;;6.99;89.95;100616.92;1699430;84;20976;-78
2022/11/08 04:38:31;;;;;;;13.27;8.37;;;;;;;6.97;90.28;100619.98;1673673;84;21083;-78
2022/11/08 04:41:02;;;;;;;13.97;8.53;;;;;;;6.97;90.22;100613.92;1709356;82;21956;-78
2022/11/08 04:43:30;;;;;;;11.77;7.83;;;;;;;6.98;90.48;100613.02;1739720;82;20987;-78
2022/11/08 04:46:00;;;;;;;13.30;8.57;;;;;;;7.01;90.68;100612.96;1725927;82;21006;-78
2022/11/08 04:48:27;;;;;;;13.13;8.55;;;;;;;7.00;90.34;100616.47;1702578;83;21011;-79
2022/11/08 04:50:54;;;;;;;14.87;9.03;;;;;;;6.97;90.12;100615.23;1731932;82;21007;-78
2022/11/08 04:53:21;;;;;;;13.03;7.87;;;;;;;6.91;89.95;100613.14;1736767;82;22102;-78
2022/11/08 04:55:48;;;;;;;14.53;8.83;;;;;;;6.89;89.97;100615.36;1741714;82;21007;-79
2022/11/08 04:58:15;;;;;;;12.63;7.97;;;;;;;6.87;90.01;100615.41;1736791;82;21019;-80
2022/11/08 05:00:42;;;;;;;13.93;9.03;;;;;;;6.84;90.01;100612.83;1741861;82;21529;-78
2022/11/08 05:03:09;;;;;;;12.77;8.90;;;;;;;6.80;89.87;100612.48;1738501;82;20987;-78
2022/11/08 05:05:36;;;;;;;11.83;8.70;;;;;;;6.73;89.59;100617.38;1740917;82;21114;-78
2022/11/08 05:08:04;;;;;;;14.90;8.93;;;;;;;6.65;89.62;100616.65;1719493;82;21007;-78
2022/11/08 05:10:31;;;;;;;13.40;8.53;;;;;;;6.59;89.63;100618.06;1658908;85;21028;-80
2022/11/08 05:12:58;;;;;;;13.70;8.73;;;;;;;6.53;89.82;100615.57;1649294;86;21066;-78
2022/11/08 05:15:28;;;;;;;14.30;9.43;;;;;;;6.48;89.85;100613.92;1649375;86;21361;-78
2022/11/08 05:17:55;;;;;;;14.60;9.30;;;;;;;6.44;90.07;100610.93;1649295;86;21157;-78
2022/11/08 05:23:24;;;;;;;11.10;8.60;;;;;;;6.40;90.20;100617.09;1649194;86;21470;-78
2022/11/08 05:25:54;;;;;;;12.30;8.07;;;;;;;6.40;90.50;100610.58;1636209;87;21572;-79
2022/11/08 05:28:21;;;;;;;13.78;8.85;;;;;;;6.41;90.59;100613.59;1649255;86;21567;-78
2022/11/08 05:30:54;;;;;;;10.60;7.87;;;;;;;6.38;90.21;100607.14;1649374;86;21619;-79
2022/11/08 05:33:21;;;;;;;13.83;8.80;;;;;;;6.32;90.11;100605.94;1649057;86;21058;-78
2022/11/08 05:35:48;;;;;;;12.57;8.47;;;;;;;6.25;90.09;100608.21;1649467;86;21047;-79
2022/11/08 05:38:15;;;;;;;11.70;8.10;;;;;;;6.20;90.36;100603.52;1649116;86;21088;-78
2022/11/08 05:40:42;;;;;;;11.97;8.77;;;;;;;6.16;90.41;100609.67;1649366;86;21042;-78
2022/11/08 05:43:10;;;;;;;11.97;8.80;;;;;;;6.18;90.99;100615.69;1649181;86;21501;-78
2022/11/08 05:45:37;;;;;;;13.27;8.73;;;;;;;6.20;91.12;100613.48;1649292;86;21035;-79
2022/11/08 05:48:05;;;;;;;12.43;8.47;;;;;;;6.22;91.23;100610.42;1649096;86;21046;-78
2022/11/08 05:50:33;;;;;;;14.57;8.80;;;;;;;6.24;91.15;100609.11;1649356;86;21007;-77
2022/11/08 05:53:02;;;;;;;;;;;;;;;6.22;91.10;100605.66;1663274;86;21038;-79
2022/11/08 05:55:29;;;;;;;12.23;8.07;;;;;;;6.23;91.44;100612.58;1665113;86;21028;-81
2022/11/08 05:57:56;;;;;;;11.77;8.17;;;;;;;6.19;91.26;100614.38;1665295;86;22094;-77
2022/11/08 06:00:23;;;;;;;10.93;7.80;;;;;;;6.24;91.60;100616.47;1665551;86;21055;-78
2022/11/08 06:02:50;;;;;;;12.93;8.43;;;;;;;6.29;91.77;100616.41;1665329;86;21487;-77
2022/11/08 06:05:17;;;;;;;14.63;8.73;;;;;;;6.32;91.83;100621.98;1665340;86;21043;-78
2022/11/08 06:07:43;;;;;;;12.97;8.70;;;;;;;6.36;91.97;100621.91;1676653;84;21556;-78
2022/11/08 06:10:10;;;;;;;12.33;8.20;;;;;;;6.38;91.81;100627.97;1677637;85;21046;-78
2022/11/08 06:12:37;;;;;;;12.77;8.43;;;;;;;6.38;91.87;100629.72;1684701;85;21030;-78
2022/11/08 06:15:07;;;;;;;11.93;8.27;;;;;;;6.43;92.07;100630.06;1685019;85;21047;-83
2022/11/08 06:17:34;;;;;;;13.15;8.80;;;;;;;6.45;91.96;100632.17;1684701;84;21047;-83
2022/11/08 06:20:02;;;;;;;12.27;8.87;;;;;;;6.43;91.82;100639.17;1685176;85;21424;-81
2022/11/08 06:22:31;;;;;;;13.47;8.07;;;;;;;6.44;91.83;100638.72;1684757;85;21050;-81
2022/11/08 06:24:58;;;;;;;10.90;8.60;;;;;;;6.44;92.00;100641.33;1684874;85;21032;-81
2022/11/08 06:27:25;;;;;;;11.00;8.30;;;;;;;6.44;92.07;100640.87;1685166;85;21581;-80
2022/11/08 06:29:52;;;;;;;15.33;9.67;;;;;;;6.46;92.11;100636.95;1681226;84;21046;-83
2022/11/08 06:32:19;;;;;;;11.63;9.03;;;;;;;6.47;92.27;100628.25;1679421;84;21093;-81
2022/11/08 06:34:47;;;;;;;13.77;8.90;;;;;;;6.48;92.24;100636.05;1682095;84;21042;-81
2022/11/08 06:37:15;;;;;;;14.93;9.60;;;;;;;6.51;92.30;100634.26;1682003;84;21613;-79
2022/11/08 06:39:43;;;;;;;12.77;9.23;;;;;;;6.52;92.43;100630.34;1681416;84;21062;-79
2022/11/08 06:42:10;;;;;;;12.90;9.37;;;;;;;6.57;92.55;100627.64;1674875;84;21591;-79
2022/11/08 06:44:37;;;;;;;16.30;10.30;;;;;;;6.60;92.71;100631.08;1676181;84;21919;-78
2022/11/08 06:47:04;;;;;;;15.50;9.73;;;;;;;6.66;92.72;100634.02;1677051;84;21038;-79
2022/11/08 06:49:31;;;;;;;14.70;9.73;;;;;;;6.66;92.58;100637.92;1682523;84;21031;-79
2022/11/08 06:51:58;;;;;;;11.43;8.80;;;;;;;6.66;92.50;100637.48;1681135;84;21118;-75
2022/11/08 06:54:25;;;;;;;12.67;8.90;;;;;;;6.68;92.60;100638.31;1675051;84;21516;-79
2022/11/08 06:56:54;;;;;;;13.77;9.23;;;;;;;6.71;92.65;100633.50;1669312;84;21094;-79
2022/11/08 06:59:22;;;;;;;15.00;9.17;;;;;;;6.73;92.73;100636.91;1668816;84;21038;-79
2022/11/08 07:01:49;;;;;;;12.10;9.70;;;;;;;6.77;92.84;100635.98;1669472;84;21039;-77
2022/11/08 07:04:16;;;;;;;14.60;9.77;;;;;;;6.83;92.82;100646.74;1669729;84;21110;-79
2022/11/08 07:06:42;;;;;;;14.17;8.97;;;;;;;6.86;92.86;100640.17;1674614;84;21109;-79
2022/11/08 07:09:09;;;;;;;13.83;9.47;;;;;;;6.88;92.97;100639.27;1715755;83;21062;-79
2022/11/08 07:11:36;;;;;;;14.53;10.17;;;;;;;6.92;92.88;100643.97;1691288;84;21063;-78
2022/11/08 07:14:03;;;;;;;16.80;10.17;;;;;;;6.96;92.88;100646.09;1677776;84;21046;-83
2022/11/08 07:16:30;;;;;;;16.00;10.07;;;;;;;7.00;92.96;100648.59;1719843;82;21034;-77
2022/11/08 07:18:57;;;;;;;15.37;10.20;;;;;;;7.03;92.89;100639.86;1690066;84;21311;-77
2022/11/08 07:21:24;;;;;;;15.00;10.00;;;;;;;7.06;92.90;100642.41;1674668;84;21146;-78
2022/11/08 07:23:51;;;;;;;15.07;10.37;;;;;;;7.07;92.83;100644.15;1719735;83;21516;-75
2022/11/08 07:26:18;;;;;;;14.97;10.60;;;;;;;7.11;92.90;100650.56;1715109;82;21042;-76
2022/11/08 07:28:45;;;;;;;14.03;10.50;;;;;;;7.15;92.89;100648.77;1718418;82;21066;-80
2022/11/08 07:31:12;;;;;;;16.50;11.37;;;;;;;7.19;92.86;100646.51;1686576;84;21517;-80
2022/11/08 07:33:39;;;;;;;16.23;10.63;;;;;;;7.23;93.00;100648.15;1715700;82;21047;-80
2022/11/08 07:36:06;;;;;;;15.47;11.00;;;;;;;7.29;92.97;100646.75;1715001;82;21082;-80
2022/11/08 07:38:33;;;;;;;14.83;11.33;;;;;;;7.34;93.00;100651.86;1715638;82;21046;-80
2022/11/08 07:41:01;;;;;;;15.10;10.87;;;;;;;7.41;93.04;100652.16;1715019;82;21594;-80
2022/11/08 07:43:28;;;;;;;20.60;12.17;;;;;;;7.50;93.14;100653.72;1716199;82;21600;-80
2022/11/08 07:46:00;;;;;;;14.43;10.67;;;;;;;7.57;93.07;100656.63;1718393;82;21125;-80
2022/11/08 07:48:29;;;;;;;15.98;11.18;;;;;;;7.63;92.94;100653.04;1715690;82;21059;-80
2022/11/08 07:50:56;;;;;;;14.47;10.73;;;;;;;7.68;92.89;100659.88;1715448;82;21355;-80
2022/11/08 07:53:23;;;;;;;17.13;10.63;;;;;;;7.75;92.91;100653.63;1715255;82;22084;-80
2022/11/08 07:55:51;;;;;;;17.73;11.40;;;;;;;7.82;92.96;100657.83;1715235;82;21026;-80
2022/11/08 07:58:17;;;;;;;14.03;10.63;;;;;;;7.90;92.81;100652.88;1715351;82;21497;-80
2022/11/08 08:00:45;;;;;;;15.40;10.10;;;;;;;7.97;92.80;100655.31;1715213;82;21035;-80
2022/11/08 08:03:13;;;;;;;18.73;10.53;;;;;;;8.05;92.65;100656.46;1715049;82;21417;-80
2022/11/08 08:05:43;;;;;;;15.10;10.40;;;;;;;8.11;92.60;100656.31;1715084;82;21094;-80
2022/11/08 08:08:12;;;;;;;11.70;9.88;;;;;;;8.17;92.49;100653.55;1715213;82;21281;-80
2022/11/08 08:10:40;;;;;;;13.80;9.97;;;;;;;8.23;92.44;100658.66;1718469;83;22032;-81
2022/11/08 08:13:07;;;;;;;17.07;10.50;;;;;;;8.30;92.32;100658.52;1693892;84;21485;-81
2022/11/08 08:15:34;;;;;;;14.50;10.57;;;;;;;8.34;92.09;100649.27;1693429;84;20940;-81
2022/11/08 08:18:04;;;;;;;17.47;9.70;;;;;;;8.40;92.06;100651.77;1693972;84;21001;-80
2022/11/08 08:20:31;;;;;;;15.05;9.33;;;;;;;8.44;92.02;100648.62;1716107;83;21024;-80
2022/11/08 08:22:59;;;;;;;15.37;9.80;;;;;;;8.51;91.97;100649.31;1693919;84;21723;-80
2022/11/08 08:25:29;;;;;;;13.07;9.30;;;;;;;8.58;91.96;100646.52;1724355;83;20993;-81
2022/11/08 08:27:59;;;;;;;13.62;9.95;;;;;;;8.67;91.92;100645.01;1694414;84;21012;-81
2022/11/08 08:30:29;;;;;;;16.30;9.25;;;;;;;8.77;91.81;100646.07;1724580;83;24943;-81
2022/11/08 08:33:07;;;;;;;13.53;9.45;;;;;;;8.85;91.67;100648.04;1693773;84;21502;-81
2022/11/08 08:35:36;;;;;;;15.23;8.53;;;;;;;8.92;91.58;100643.05;1724657;83;21276;-81
2022/11/08 08:38:05;;;;;;;11.97;9.13;;;;;;;9.02;91.45;100641.91;1723312;83;21041;-81
2022/11/08 08:40:33;;;;;;;13.53;8.90;;;;;;;9.11;91.37;100640.34;1694608;84;21688;-80
2022/11/08 08:43:02;;;;;;;13.47;9.47;;;;;;;9.22;91.33;100638.75;1724088;82;21024;-81
2022/11/08 08:45:30;;;;;;;13.63;9.30;;;;;;;9.33;91.28;100639.30;1694205;84;21067;-80
2022/11/08 08:47:57;;;;;;;12.28;9.20;;;;;;;9.49;91.17;100641.50;1724255;83;21128;-81
2022/11/08 08:50:27;;;;;;;10.43;8.07;;;;;;;9.63;91.06;100638.03;1694121;84;21020;-81
2022/11/08 08:53:01;;;;;;;13.08;8.43;;;;;;;9.77;90.91;100640.23;1724639;83;21017;-81
2022/11/08 08:55:28;;;;;;;12.93;8.03;;;;;;;9.89;90.58;100635.08;1708706;83;21009;-81
2022/11/08 08:57:55;;;;;;;11.80;8.43;;;;;;;10.00;90.34;100636.91;1693891;84;21019;-82
2022/11/08 09:00:23;;;;;;;11.83;8.00;;;;;;;10.08;90.02;100637.99;1724404;83;21100;-81
2022/11/08 09:02:50;;;;;;;10.95;8.00;;;;;;;10.17;89.94;100643.81;1693759;84;21044;-81
2022/11/08 09:05:17;;;;;;;11.83;8.20;;;;;;;10.24;89.87;100637.45;1723953;83;21024;-81
2022/11/08 09:07:44;;;;;;;17.35;8.05;;;;;;;10.35;89.72;100639.77;1688149;84;21098;-81
2022/11/08 09:10:11;;;;;;;11.45;8.38;;;;;;;10.40;89.46;100640.48;1720187;83;21527;-81
2022/11/08 09:12:38;;;;;;;14.05;8.53;;;;;;;10.46;89.21;100635.50;1693344;84;21039;-81
2022/11/08 09:15:06;;;;;;;14.85;8.60;;;;;;;10.55;89.15;100641.73;1724443;83;21093;-81
2022/11/08 09:17:33;;;;;;;16.37;8.93;;;;;;;10.60;88.97;100633.73;1693803;84;21007;-80
2022/11/08 09:20:00;;;;;;;12.20;8.23;;;;;;;10.64;88.81;100639.26;1724399;83;20932;-81
2022/11/08 09:22:26;;;;;;;11.40;8.08;;;;;;;10.67;88.77;100632.17;1693972;84;21012;-81
2022/11/08 09:24:53;;;;;;;14.03;9.15;;;;;;;10.74;88.67;100645.06;1724199;83;21215;-80
2022/11/08 09:27:20;;;;;;;11.53;8.40;;;;;;;10.88;88.70;100634.95;1693940;84;21587;-80
2022/11/08 09:29:47;;;;;;;12.88;8.48;;;;;;;11.08;88.53;100639.04;1721561;83;21366;-80
2022/11/08 09:32:14;;;;;;;10.75;8.30;;;;;;;11.26;88.67;100637.55;1694267;84;21470;-81
2022/11/08 09:34:41;;;;;;;13.32;8.28;;;;;;;11.42;88.30;100638.28;1723594;83;21044;-80
2022/11/08 09:37:08;;;;;;;10.50;8.28;;;;;;;11.61;88.36;100634.06;1694332;84;21117;-80
2022/11/08 09:39:35;;;;;;;10.48;7.30;;;;;;;11.68;88.15;100636.87;1723981;83;20993;-81
2022/11/08 09:42:27;;;;;;;11.40;7.35;;;;;;;11.71;87.69;100633.27;1694234;84;21036;-81
2022/11/08 09:45:35;;;;;;;11.22;7.50;;;;;;;11.74;87.45;100641.03;1724080;83;21116;-81
2022/11/08 09:48:05;;;;;;;10.18;7.55;;;;;;;11.92;87.28;100630.33;1693780;84;21032;-80
2022/11/08 09:50:43;;;;;;;10.72;7.37;;;;;;;12.08;87.11;100626.61;1724557;83;21423;-80
2022/11/08 09:53:39;;;;;;;11.80;8.08;;;;;;;12.26;86.84;100621.95;1693580;84;20948;-80
2022/11/08 09:56:28;;;;;;;14.43;7.67;;;;;;;12.52;86.79;100621.33;1723767;83;21467;-80
2022/11/08 09:59:05;;;;;;;9.60;7.25;;;;;;;12.88;86.61;100621.55;1679536;84;21016;-80
2022/11/08 10:01:35;;;;;;;15.10;8.00;;;;;;;13.28;86.18;100617.22;1723565;83;21592;-80
2022/11/08 10:04:08;;;;;;;14.85;6.92;;;;;;;13.60;85.74;100616.59;1694017;84;21977;-80
2022/11/08 10:07:20;;;;;;;10.32;7.20;;;;;;;13.89;85.28;100610.44;1722853;82;20988;-80
2022/11/08 10:09:54;;;;;;;11.83;7.45;;;;;;;14.19;85.00;100609.87;1665794;85;21068;-80
2022/11/08 10:12:51;;;;;;;13.60;7.42;;;;;;;14.61;84.34;100602.14;1718631;83;20893;-81
2022/11/08 10:15:35;;;;;;;10.55;7.83;;;;;;;14.86;83.91;100593.36;1692941;83;21079;-80
2022/11/08 10:18:32;;;;;;;13.20;7.87;;;;;;;15.14;83.12;100591.44;1724525;83;21092;-80
2022/11/08 10:21:37;;;;;;;10.28;6.15;;;;;;;15.38;82.36;100587.97;1723189;83;21095;-81
2022/11/08 10:24:36;;;;;;;10.65;6.92;;;;;;;15.70;82.12;100586.69;1693921;84;21008;-81
2022/11/08 10:27:06;;;;;;;9.58;6.87;;;;;;;16.00;81.31;100584.12;1723786;83;21013;-81
2022/11/08 10:29:44;;;;;;;10.82;7.08;;;;;;;16.28;80.93;100579.90;1692671;84;21577;-80
2022/11/08 10:32:15;;;;;;;9.65;6.67;;;;;;;16.56;80.33;100579.13;1724161;83;21127;-80
2022/11/08 10:34:51;;;;;;;12.58;6.78;;;;;;;16.73;79.89;100577.65;1693526;84;21048;-81
2022/11/08 10:37:19;;;;;;;10.98;6.30;;;;;;;17.01;79.56;100575.17;1723981;83;21005;-81
2022/11/08 10:39:56;;;;;;;10.90;6.78;;;;;;;17.19;78.80;100567.42;1693832;84;21422;-81
2022/11/08 10:42:49;;;;;;;8.58;5.95;;;;;;;17.38;78.00;100556.06;1724416;82;21322;-80
2022/11/08 10:45:15;;;;;;;10.50;7.40;;;;;;;17.60;77.66;100567.96;1687229;84;21136;-80
2022/11/08 10:47:45;;;;;;;7.72;5.60;;;;;;;17.75;76.95;100568.28;1720635;83;21003;-80
2022/11/08 10:50:20;;;;;;;;;;;;;;;17.87;76.53;100561.37;1696304;84;21075;-81
2022/11/08 10:53:00;;;;;;;9.50;5.62;;;;;;;17.99;75.30;100559.26;1694198;84;20428;-81
2022/11/08 10:55:37;;;;;;;8.85;6.00;;;;;;;18.14;75.74;100558.72;1724210;83;21455;-81
2022/11/08 10:58:02;;;;;;;7.85;5.42;;;;;;;18.33;75.07;100550.39;1693964;84;22068;-81
2022/11/08 11:00:32;;;;;;;6.55;5.15;;;;;;;18.43;74.78;100543.52;1723875;83;21048;-81
2022/11/08 11:03:13;;;;;;;6.83;5.40;;;;;;;18.60;74.24;100550.81;1694248;84;21013;-81
2022/11/08 11:05:43;;;;;;;8.75;5.00;;;;;;;18.91;73.03;100548.25;1713362;82;20933;-81
2022/11/08 11:08:13;;;;;;;;;;;;;;;19.34;72.73;100542.55;1685229;84;21510;-81
2022/11/08 11:10:46;;;;;;;8.18;4.47;;;;;;;19.69;71.08;100534.73;1674635;84;21110;-81
2022/11/08 11:13:26;;;;;;;7.35;5.42;;;;;;;19.99;71.12;100540.09;1693605;83;21528;-82
2022/11/08 11:16:01;;;;;;;;;;;;;;;20.18;70.55;100539.58;1695807;83;21519;-81
2022/11/08 11:18:48;;;;;;;7.30;4.97;;;;;;;20.39;69.32;100537.09;1693369;83;20176;-81
2022/11/08 11:21:18;;;;;;;7.60;4.58;;;;;;;20.54;69.38;100533.30;1693662;83;21023;-81
2022/11/08 11:23:54;;;;;;;6.40;4.17;;;;;;;20.74;69.03;100537.09;1693532;83;21093;-81
2022/11/08 11:26:43;;;;;;;7.50;3.90;;;;;;;20.92;68.75;100537.45;1693406;83;21044;-80
2022/11/08 11:29:27;;;;;;;9.43;3.92;;;;;;;21.24;68.46;100525.59;1693441;83;21038;-81
2022/11/08 11:31:54;;;;;;;6.33;3.52;;;;;;;21.56;67.91;100524.38;1689541;83;21035;-77
2022/11/08 11:34:33;;;;;;;5.35;3.42;;;;;;;21.78;67.30;100523.94;1690260;83;21050;-81
2022/11/08 11:37:20;;;;;;;5.17;3.20;;;;;;;21.86;67.17;100522.83;1688809;83;21525;-78
2022/11/08 11:39:58;;;;;;;6.22;3.10;;;;;;;21.64;66.23;100521.56;1691182;83;22263;-79
2022/11/08 11:43:18;;;;;;;3.62;2.60;;;;;;;21.53;66.20;100513.97;1693581;83;21015;-86
2022/11/08 11:45:53;;;;;;;6.72;3.25;;;;;;;21.44;65.88;100505.36;1685970;83;21050;-83
2022/11/08 11:48:31;;;;;;;5.95;3.05;;;;;;;21.32;64.83;100513.84;1692715;83;21484;-80
2022/11/08 11:50:58;;;;;;;5.58;2.65;;;;;;;21.23;65.26;100505.25;1691315;83;21309;-81
2022/11/08 11:53:31;;;;;;;9.05;2.98;;;;;;;21.29;64.82;100499.42;1692748;83;20988;-83
2022/11/08 11:56:30;;;;;;;5.92;3.12;;;;;;;21.25;64.51;100501.12;1693323;83;21023;-77
2022/11/08 11:59:37;;;;;;;5.28;3.00;;;;;;;21.21;64.01;100505.02;1693543;83;22199;-76
2022/11/08 12:02:31;;;;;;;5.03;3.70;;;;;;;21.28;64.26;100501.70;1692369;83;21536;-77